Flight Track Log - Related Links

Times and Time Zones

All times are in EDT time to prevent confusion due to time zone crossing. See the AWE874 flight status page for this flight to view local times or setup timezone preferences in your user account.

Time Position Orientation Groundspeed Altitude Reporting Facility
EDT Latitude Longitude Course Direction KTS MPH feet Rate Location/Type
Sat 07:16:38 AM 35.8986 -78.7792 263° West 190 219 1,500  Level Washington Center
Sat 07:17:08 AM 35.9117 -78.7619 47° Northeast 158 182 2,400 2,259 Climbing Washington Center
Sat 07:18:03 AM 35.9583 -78.7303 29° Northeast 214 246 4,700 2,087 Climbing Washington Center
Sat 07:19:00 AM 35.8500 -79.0332 270° West  Level FlightAware Approximate
Sat 07:19:03 AM 36.0075 -78.7733 325° Northwest 257 296 6,400  Level Washington Center
Sat 07:20:00 AM 35.8499 -79.1171 263° West  Level FlightAware Approximate
Sat 07:20:15 AM 36.0111 -78.8658 273° West 256 295 10,000  Level Washington Center
Sat 07:21:00 AM 35.8416 -79.2005 263° West  Level FlightAware Approximate
Sat 07:21:15 AM 35.9878 -78.9575 253° West 254 292 11,500  Level Washington Center
Sat 07:22:15 AM 35.9597 -79.0667 252° West 292 336 12,600 750 Climbing Washington Center
Sat 07:23:15 AM 35.9244 -79.1933 251° West 343 395 13,000 124 Climbing Washington Center
Sat 07:25:29 AM 35.8539 -79.4603 252° West 371 427 13,000  Level Atlanta Center
Sat 07:26:29 AM 35.8208 -79.5775 251° West 371 427 13,000  Level Atlanta Center
Sat 07:27:29 AM 35.8122 -79.6881 265° West 371 427 13,000  Level Atlanta Center
Sat 07:28:29 AM 35.8125 -79.8136 270° West 364 419 13,000  Level Atlanta Center
Sat 07:29:29 AM 35.8125 -79.9364 270° West 372 428 13,000 53 Level Atlanta Center
Sat 07:30:23 AM 35.8128 -80.0747 270° West 371 427 13,100 55 Climbing Atlanta Center
Sat 07:31:18 AM 35.8122 -80.1925 270° West 373 429 13,100  Level Atlanta Center
Sat 07:32:25 AM 35.8103 -80.3283 269° West 375 432 13,100 -117 Level Atlanta Center
Sat 07:33:01 AM 35.8083 -80.4053 268° West 373 429 12,900 -750 Descending Atlanta Center
Sat 07:33:29 AM 35.7869 -80.4600 244° Southwest 363 418 12,300 -984 Descending Atlanta Center
Sat 07:34:02 AM 35.7400 -80.4953 211° Southwest 373 429 11,900 -900 Descending Atlanta Center
Sat 07:34:29 AM 35.7014 -80.5278 214° Southwest 349 402 11,400 -608 Descending Atlanta Center
Sat 07:35:21 AM 35.6303 -80.5919 216° Southwest 368 423 11,100 -151 Descending Atlanta Center
Sat 07:36:28 AM 35.5344 -80.6700 214° Southwest 367 422 11,100  Level Atlanta Center
Sat 07:37:04 AM 35.4811 -80.7106 212° Southwest 367 422 11,100 -98 Level Atlanta Center
Sat 07:37:29 AM 35.4547 -80.7319 213° Southwest 371 427 11,000 -197 Descending Atlanta Center
Sat 07:38:05 AM 35.4036 -80.7772 216° Southwest 316 364 10,900 -500 Descending Atlanta Center
Sat 07:38:29 AM 35.3853 -80.7908 211° Southwest 344 396 10,500 -1,612 Descending Atlanta Center
Sat 07:39:12 AM 35.3406 -80.8308 216° Southwest 235 270 9,100 -1,800 Descending Atlanta Center
Sat 07:39:29 AM 35.3239 -80.8392 202° Southwest 282 325 8,700 -2,400 Descending Atlanta Center
Sat 07:40:07 AM 35.2739 -80.8383 179° South 267 307 6,900 -2,423 Descending Atlanta Center
Sat 07:41:13 AM 35.1839 -80.8317 177° South 279 321 4,500 -1,465 Descending Atlanta Center
Sat 07:42:14 AM 35.1089 -80.8322 180° South 269 310 3,800 -656 Descending Atlanta Center
Sat 07:43:21 AM 35.0939 -80.8986 255° West 184 212 3,100 -761 Descending Atlanta Center
Sat 07:44:28 AM 35.1364 -80.9325 327° Northwest 147 169 2,100 -896 Descending Atlanta Center

Login

Don't have an account? Register now (free) for customized features, flight alerts, and more!